This is the latest recevied weather packets stored in our database for station/object WC4PEM-10. If no packets are shown the sender has not sent any weather packets the latest 10 day(s).
| Time | Temp. | Humidity | Pressure | Rain* | Wind** | Luminosity | Snow |
|---|---|---|---|---|---|---|---|
| 1777223515 | 30° C | 61% | 1011 hPa | 0 mm | - | - | - |
| 1777223396 | 29.44° C | 62% | 1011.1 hPa | 0 mm | - | - | - |
| 1777223215 | 29.44° C | 62% | 1011.1 hPa | 0 mm | - | - | - |
| 1777223007 | 29.44° C | 63% | 1011.1 hPa | 0 mm | - | - | - |
| 1777222915 | 29.44° C | 63% | 1011.1 hPa | 0 mm | - | - | - |
| 1777222718 | 28.89° C | 64% | 1011 hPa | 0 mm | - | - | - |
| 1777222615 | 28.89° C | 64% | 1011 hPa | 0 mm | - | - | - |
| 1777222315 | 28.33° C | 66% | 1011.2 hPa | 0 mm | - | - | - |
| 1777222119 | 28.33° C | 67% | 1011.3 hPa | 0 mm | - | - | - |
| 1777222015 | 28.33° C | 67% | 1011.3 hPa | 0 mm | - | - | - |
| 1777221715 | 28.33° C | 65% | 1011.3 hPa | 0 mm | - | - | - |
| 1777221651 | 28.33° C | 67% | 1011.4 hPa | 0 mm | - | - | - |
| 1777221415 | 28.33° C | 67% | 1011.4 hPa | 0 mm | - | - | - |
| 1777221115 | 28.33° C | 66% | 1011.5 hPa | 0 mm | - | - | - |
| 1777220917 | 28.33° C | 67% | 1011.4 hPa | 0 mm | - | - | - |
| 1777220835 | 27.78° C | 70% | 1011.9 hPa | 0 mm | - | - | - |
| 1777220815 | 28.33° C | 67% | 1011.4 hPa | 0 mm | - | - | - |
| 1777220658 | 27.78° C | 68% | 1011.4 hPa | 0 mm | - | - | - |
| 1777220515 | 27.78° C | 68% | 1011.4 hPa | 0 mm | - | - | - |
| 1777220315 | 27.78° C | 67% | 1011.5 hPa | 0 mm | - | - | - |
| 1777220215 | 27.78° C | 67% | 1011.5 hPa | 0 mm | - | - | - |
| 1777219915 | 27.78° C | 70% | 1011.7 hPa | 0 mm | - | - | - |
| 1777219741 | 27.78° C | 70% | 1011.7 hPa | 0 mm | - | - | - |
| 1777219615 | 27.78° C | 70% | 1011.7 hPa | 0 mm | - | - | - |
| 1777219443 | 27.78° C | 70% | 1011.9 hPa | 0 mm | - | - | - |
* Rain latest hour (hover to see other rain measurements)
** Current wind speed in m/s (hover to see current wind gust speed)